Clare, New York
Current Conditions -  °F | °C
As of 9:58 AM on Monday 24 Nov 2014 (Local Time) from KGTB Reporting Station
Scattered Clouds Scattered Clouds  
Wind Chill: 62°   Ceiling: Unl
Heat Index: 62°   Visibility: 10mi
Dew Point: 52°   Wind: 25mph
Humidity: 70%   Direction: 200°SSW
Pressure: 29.37"   Gusts: 37mph
Location:  44.3602°N, 75.0433°W
Report Text: KGTB 241458Z AUTO 20022G32KT 10SM SCT050 17/11 A2937 RMK AO2 PK WND 20032/34 SLP947 T01670113 20032 55009
Loading
Personal Weather Stations






























Interactive Weather Map New forecast layout! Learn more

10-Day Weather Forecast

Advertisements
Track Severe Weather on mobile